Time;durP1;ratioP1;P1;durP2;ratioP2;P2;SDS_P1;SDS_P2;PMS_P1;PMS_P2;Temp;Humidity;BMP_temperature;BMP_pressure;BME280_temperature;BME280_humidity;BME280_pressure;Samples;Min_cycle;Max_cycle;Signal;HPM_P1;HPM_P2
2022/09/10 00:01:28;;;;;;;0.57;0.57;;;;;;;15.84;76.59;97961.81;6243980;23;20012;-83
2022/09/10 00:03:55;;;;;;;0.38;0.38;;;;;;;15.81;76.54;97955.16;6244263;23;20020;-85
2022/09/10 00:06:25;;;;;;;0.50;0.50;;;;;;;15.82;76.53;97961.25;6244397;23;20020;-83
2022/09/10 00:08:57;;;;;;;0.40;0.40;;;;;;;15.80;76.78;97956.19;6216907;23;20099;-83
2022/09/10 00:11:30;;;;;;;0.93;0.50;;;;;;;15.71;76.69;97950.50;6243769;23;20081;-84
2022/09/10 00:14:03;;;;;;;1.60;0.40;;;;;;;15.71;76.46;97957.59;6243475;23;20091;-82
2022/09/10 00:16:31;;;;;;;0.63;0.40;;;;;;;15.63;76.28;97957.97;6244636;23;20024;-83
2022/09/10 00:19:00;;;;;;;0.40;0.40;;;;;;;15.65;76.67;97959.38;6244166;23;20016;-83
2022/09/10 00:21:28;;;;;;;0.75;0.40;;;;;;;15.62;77.21;97951.06;6243286;23;20016;-82
2022/09/10 00:23:56;;;;;;;0.52;0.50;;;;;;;15.59;76.73;97947.03;6243018;23;20024;-83
2022/09/10 00:26:28;;;;;;;0.52;0.52;;;;;;;15.57;77.02;97951.75;6237203;23;20020;-83
2022/09/10 00:29:00;;;;;;;0.80;0.40;;;;;;;15.53;77.16;97948.81;6243918;22;20030;-83
2022/09/10 00:31:29;;;;;;;0.60;0.50;;;;;;;15.55;76.63;97951.19;6244551;22;20016;-84
2022/09/10 00:33:58;;;;;;;0.98;0.47;;;;;;;15.57;76.37;97954.41;6242652;23;20074;-83
2022/09/10 00:36:28;;;;;;;1.10;0.60;;;;;;;15.51;76.52;97956.13;6243220;22;20020;-82
2022/09/10 00:39:04;;;;;;;1.17;0.60;;;;;;;15.52;76.61;97956.94;6239250;22;20020;-82
2022/09/10 00:41:36;;;;;;;0.43;0.43;;;;;;;15.57;76.76;97957.03;6243182;22;20020;-84
2022/09/10 00:44:39;;;;;;;0.50;0.50;;;;;;;15.53;76.59;97951.44;6243703;22;20054;-81
2022/09/10 00:47:20;;;;;;;1.23;0.60;;;;;;;15.53;76.66;97935.59;6240910;23;20444;-83
2022/09/10 00:49:59;;;;;;;1.65;0.50;;;;;;;15.52;76.94;97930.50;6243478;22;20020;-83
2022/09/10 00:52:28;;;;;;;0.85;0.50;;;;;;;15.46;76.31;97937.53;6242745;22;20046;-82
2022/09/10 00:54:56;;;;;;;0.95;0.60;;;;;;;15.37;76.55;97930.22;6243063;22;20034;-82
2022/09/10 00:57:27;;;;;;;0.82;0.70;;;;;;;15.31;77.29;97929.31;6244036;22;20449;-83
2022/09/10 01:00:02;;;;;;;0.57;0.57;;;;;;;15.31;77.74;97934.59;6243192;22;20103;-82
2022/09/10 01:02:29;;;;;;;1.13;0.70;;;;;;;15.23;77.49;97927.03;6242953;22;20012;-81
2022/09/10 01:04:59;;;;;;;2.60;0.80;;;;;;;15.16;77.57;97927.16;6243275;22;20023;-82
2022/09/10 01:07:29;;;;;;;0.82;0.60;;;;;;;15.10;77.61;97930.72;6243339;22;20023;-81
2022/09/10 01:10:01;;;;;;;0.95;0.82;;;;;;;15.06;77.85;97926.97;6243241;22;20026;-82
2022/09/10 01:13:10;;;;;;;0.70;0.70;;;;;;;15.03;78.15;97919.50;6243163;22;20064;-83
2022/09/10 01:15:53;;;;;;;0.73;0.60;;;;;;;15.01;78.68;97924.22;6242752;22;20016;-82
2022/09/10 01:18:48;;;;;;;0.75;0.75;;;;;;;15.01;78.45;97920.78;6243904;22;20020;-81
2022/09/10 01:21:41;;;;;;;0.82;0.77;;;;;;;14.94;78.57;97912.97;6240952;23;20016;-81
2022/09/10 01:24:51;;;;;;;0.65;0.65;;;;;;;14.94;78.84;97918.25;6241514;23;20043;-82
2022/09/10 01:27:39;;;;;;;1.08;0.73;;;;;;;15.01;78.93;97920.78;6243703;22;20016;-82
2022/09/10 01:30:40;;;;;;;0.50;0.50;;;;;;;14.92;78.67;97921.09;6243307;22;20024;-82
2022/09/10 01:33:14;;;;;;;0.90;0.75;;;;;;;14.95;78.92;97919.84;6242589;22;20024;-83
2022/09/10 01:35:45;;;;;;;0.80;0.70;;;;;;;14.96;79.14;97921.47;6242881;22;20415;-82
2022/09/10 01:38:21;;;;;;;0.98;0.60;;;;;;;14.96;78.92;97910.91;6238584;22;20022;-83
2022/09/10 01:40:49;;;;;;;1.27;1.00;;;;;;;14.90;79.03;97915.25;6242924;22;20070;-81
2022/09/10 01:43:16;;;;;;;0.63;0.50;;;;;;;14.93;78.76;97917.47;6241496;23;20016;-82
2022/09/10 01:46:02;;;;;;;1.08;0.70;;;;;;;14.92;79.06;97915.81;6243442;23;20020;-82
2022/09/10 01:48:46;;;;;;;1.23;0.68;;;;;;;14.88;78.45;97913.91;6243025;22;20019;-82
2022/09/10 01:51:30;;;;;;;2.58;0.75;;;;;;;14.86;79.08;97923.88;6240582;23;20087;-82
2022/09/10 01:54:44;;;;;;;0.60;0.60;;;;;;;14.76;78.72;97921.03;6242701;22;20020;-83
2022/09/10 01:57:41;;;;;;;0.70;0.70;;;;;;;14.75;79.60;97924.69;6242523;23;20027;-81
2022/09/10 02:00:13;;;;;;;0.63;0.60;;;;;;;14.79;79.27;97925.84;6243718;23;20020;-82
2022/09/10 02:03:04;;;;;;;1.50;0.65;;;;;;;14.81;78.98;97918.47;6242187;22;20012;-81
2022/09/10 02:05:36;;;;;;;1.55;0.88;;;;;;;14.82;79.12;97910.34;6243206;22;20102;-83
2022/09/10 02:08:11;;;;;;;1.25;0.90;;;;;;;14.82;78.76;97904.25;6242962;22;20099;-82
2022/09/10 02:11:04;;;;;;;1.50;0.75;;;;;;;14.86;78.55;97905.38;6241900;23;20020;-81
2022/09/10 02:13:33;;;;;;;1.05;0.73;;;;;;;14.88;78.32;97898.06;6242491;22;20067;-82
2022/09/10 02:16:05;;;;;;;0.70;0.70;;;;;;;14.91;77.67;97908.94;6243218;22;20504;-82
2022/09/10 02:18:32;;;;;;;1.23;0.80;;;;;;;14.91;78.47;97902.84;6242615;22;20095;-83
2022/09/10 02:21:02;;;;;;;0.85;0.60;;;;;;;14.91;78.49;97910.78;6242884;22;20054;-82
2022/09/10 02:23:41;;;;;;;1.08;0.65;;;;;;;14.95;78.15;97911.94;6242043;22;20040;-84
2022/09/10 02:26:08;;;;;;;0.98;0.80;;;;;;;14.92;78.56;97894.69;6241536;22;20039;-82
2022/09/10 02:28:36;;;;;;;0.63;0.63;;;;;;;14.90;78.20;97902.06;6216372;23;20059;-83
2022/09/10 02:31:03;;;;;;;1.05;0.60;;;;;;;14.88;78.14;97900.69;6215422;23;20452;-83
2022/09/10 02:33:30;;;;;;;0.60;0.60;;;;;;;14.87;77.99;97907.81;6242481;23;20016;-82
2022/09/10 02:35:57;;;;;;;0.85;0.68;;;;;;;14.91;78.37;97908.13;6242625;23;20095;-81
2022/09/10 02:38:28;;;;;;;1.08;0.60;;;;;;;14.89;78.01;97908.38;6238891;23;20016;-83
2022/09/10 02:40:58;;;;;;;0.50;0.50;;;;;;;14.90;78.06;97911.81;6242297;23;20051;-83
2022/09/10 02:43:26;;;;;;;0.50;0.50;;;;;;;14.92;78.19;97915.03;6215920;23;20044;-84
2022/09/10 02:45:58;;;;;;;1.20;0.82;;;;;;;14.89;78.20;97920.78;6242928;23;20040;-83
2022/09/10 02:48:26;;;;;;;1.17;0.80;;;;;;;14.89;78.22;97918.13;6243296;23;20027;-84
2022/09/10 02:50:53;;;;;;;1.73;0.70;;;;;;;14.87;78.02;97922.81;6216831;23;20083;-84
2022/09/10 02:53:20;;;;;;;0.50;0.50;;;;;;;14.87;78.52;97926.31;6242560;23;20087;-84
2022/09/10 02:55:48;;;;;;;0.68;0.68;;;;;;;14.89;78.30;97918.94;6242985;23;20023;-83
2022/09/10 02:58:15;;;;;;;0.85;0.60;;;;;;;14.89;78.49;97928.69;6243151;23;20012;-85
2022/09/10 03:00:46;;;;;;;0.60;0.60;;;;;;;14.92;78.37;97925.59;6243620;23;20043;-84
2022/09/10 03:03:13;;;;;;;;;;;;;;;14.99;77.38;97918.34;6217224;23;20493;-84
2022/09/10 03:05:40;;;;;;;0.65;0.65;;;;;;;15.01;76.98;97918.94;6243120;23;19998;-84
2022/09/10 03:08:08;;;;;;;0.50;0.50;;;;;;;14.99;76.91;97913.06;6242756;23;20020;-83
2022/09/10 03:10:38;;;;;;;0.60;0.60;;;;;;;15.01;77.19;97920.78;6216483;23;20031;-84
2022/09/10 03:13:05;;;;;;;0.85;0.40;;;;;;;15.07;77.56;97933.84;6243316;23;20448;-84
2022/09/10 03:15:31;;;;;;;0.60;0.60;;;;;;;15.08;76.49;97927.53;6216229;23;20358;-84
2022/09/10 03:17:58;;;;;;;0.65;0.60;;;;;;;15.08;76.60;97918.81;6242709;23;20098;-84
2022/09/10 03:20:26;;;;;;;0.50;0.50;;;;;;;15.04;75.97;97918.44;6243549;23;20095;-83
2022/09/10 03:22:52;;;;;;;0.55;0.50;;;;;;;15.05;76.76;97919.25;6244464;23;20422;-83
2022/09/10 03:25:19;;;;;;;1.25;0.70;;;;;;;14.97;76.60;97923.06;6218300;23;20020;-83
2022/09/10 03:27:46;;;;;;;0.40;0.40;;;;;;;15.01;76.68;97913.66;6244822;23;20552;-84
2022/09/10 03:30:12;;;;;;;1.05;0.50;;;;;;;15.05;76.34;97908.69;6244106;23;20111;-83
2022/09/10 03:32:39;;;;;;;1.35;0.70;;;;;;;15.04;76.27;97909.72;6218296;23;20016;-83
2022/09/10 03:35:06;;;;;;;0.80;0.70;;;;;;;15.02;76.35;97912.59;6244262;23;20109;-84
2022/09/10 03:37:33;;;;;;;0.50;0.50;;;;;;;15.05;76.67;97914.78;6245087;23;20052;-84
2022/09/10 03:40:00;;;;;;;0.40;0.40;;;;;;;15.02;76.91;97912.59;6239094;23;20533;-85
2022/09/10 03:42:26;;;;;;;0.82;0.50;;;;;;;15.06;76.23;97916.41;6245219;23;20490;-83
2022/09/10 03:44:55;;;;;;;0.40;0.40;;;;;;;15.14;76.92;97921.31;6244956;23;20047;-84
2022/09/10 03:47:21;;;;;;;0.43;0.43;;;;;;;15.20;76.65;97919.56;6245207;23;20020;-86
2022/09/10 03:49:49;;;;;;;0.77;0.50;;;;;;;15.16;76.24;97916.59;6244500;23;20103;-83
2022/09/10 03:52:17;;;;;;;0.55;0.40;;;;;;;15.22;76.72;97910.38;6245016;23;20020;-83
2022/09/10 03:54:48;;;;;;;0.80;0.40;;;;;;;15.22;76.46;97915.66;6217709;23;20048;-83
2022/09/10 03:57:15;;;;;;;0.32;0.32;;;;;;;15.27;76.37;97913.13;6244447;23;20509;-83
2022/09/10 03:59:42;;;;;;;0.40;0.40;;;;;;;15.25;76.42;97903.84;6244617;23;20022;-84
2022/09/10 04:02:08;;;;;;;0.40;0.40;;;;;;;15.26;76.48;97916.81;6216909;23;20024;-84
2022/09/10 04:04:38;;;;;;;0.90;0.50;;;;;;;15.27;76.44;97913.13;6244308;23;20034;-83
2022/09/10 04:07:05;;;;;;;0.50;0.50;;;;;;;15.20;76.68;97914.28;6243615;23;20016;-83
2022/09/10 04:09:32;;;;;;;0.70;0.47;;;;;;;15.19;76.78;97913.50;6217309;23;20030;-83
2022/09/10 04:11:59;;;;;;;0.40;0.40;;;;;;;15.23;76.87;97912.00;6192186;23;20012;-83
2022/09/10 04:14:26;;;;;;;0.50;0.50;;;;;;;15.19;76.57;97908.22;6244179;23;20459;-83
2022/09/10 04:16:53;;;;;;;0.30;0.30;;;;;;;15.20;76.59;97912.47;6217536;23;20432;-83
2022/09/10 04:19:19;;;;;;;0.35;0.35;;;;;;;15.23;76.55;97912.00;6244402;23;20099;-82
2022/09/10 04:21:47;;;;;;;0.55;0.40;;;;;;;15.23;76.79;97914.66;6243428;23;20020;-83
2022/09/10 04:24:14;;;;;;;1.75;0.40;;;;;;;15.23;76.71;97909.34;6244033;23;20315;-83
2022/09/10 04:26:40;;;;;;;0.40;0.40;;;;;;;15.24;76.88;97918.09;6243527;22;20039;-82
2022/09/10 04:29:07;;;;;;;1.25;0.40;;;;;;;15.24;76.70;97913.59;6243852;23;20020;-83
2022/09/10 04:31:34;;;;;;;0.77;0.50;;;;;;;15.23;76.34;97914.66;6216843;23;20016;-82
2022/09/10 04:34:01;;;;;;;0.40;0.40;;;;;;;15.25;76.62;97909.91;6243205;23;20012;-83
2022/09/10 04:36:28;;;;;;;0.77;0.40;;;;;;;15.24;76.43;97916.25;6244215;23;20442;-84
2022/09/10 04:38:55;;;;;;;0.30;0.30;;;;;;;15.15;75.99;97914.19;6212834;23;20054;-83
2022/09/10 04:41:22;;;;;;;0.40;0.40;;;;;;;15.18;76.71;97919.81;6192213;23;20350;-84
2022/09/10 04:43:48;;;;;;;0.30;0.30;;;;;;;15.18;76.42;97911.91;6216263;23;20018;-82
2022/09/10 04:46:16;;;;;;;0.45;0.45;;;;;;;15.17;76.54;97920.03;6244547;23;20022;-85
2022/09/10 04:48:43;;;;;;;0.80;0.55;;;;;;;15.16;77.01;97921.88;6243071;23;20016;-82
2022/09/10 04:51:12;;;;;;;1.25;0.45;;;;;;;15.23;76.73;97927.84;6217678;23;20467;-83
2022/09/10 04:53:44;;;;;;;0.50;0.50;;;;;;;15.27;77.09;97922.88;6243006;23;20144;-85
2022/09/10 04:56:11;;;;;;;0.50;0.50;;;;;;;15.30;76.43;97926.91;6243508;23;20045;-84
2022/09/10 04:58:39;;;;;;;1.25;0.50;;;;;;;15.24;76.34;97929.44;6243579;23;20020;-83
2022/09/10 05:01:07;;;;;;;0.60;0.60;;;;;;;15.13;76.63;97926.84;6244053;23;20433;-84
2022/09/10 05:03:34;;;;;;;0.63;0.47;;;;;;;15.15;76.65;97924.75;6244325;23;20015;-84
2022/09/10 05:06:02;;;;;;;0.30;0.30;;;;;;;15.24;77.11;97929.44;6216189;23;20020;-83
2022/09/10 05:08:29;;;;;;;0.40;0.40;;;;;;;15.24;75.17;97929.44;6215879;23;20019;-83
2022/09/10 05:10:57;;;;;;;0.40;0.40;;;;;;;15.25;75.38;97930.25;6242686;23;20024;-83
2022/09/10 05:13:24;;;;;;;0.50;0.50;;;;;;;15.25;75.25;97932.91;6216513;23;20012;-83
2022/09/10 05:15:50;;;;;;;0.65;0.50;;;;;;;15.20;75.36;97938.06;6243681;23;20298;-82
2022/09/10 05:18:17;;;;;;;1.13;0.60;;;;;;;15.23;75.59;97935.78;6242896;23;20012;-82
2022/09/10 05:20:44;;;;;;;0.40;0.40;;;;;;;15.22;75.57;97936.78;6242939;23;20044;-83
2022/09/10 05:23:11;;;;;;;1.23;0.70;;;;;;;15.15;75.08;97937.97;6243829;23;20022;-83
2022/09/10 05:25:38;;;;;;;0.50;0.50;;;;;;;15.07;75.53;97941.78;6242773;22;20016;-83
2022/09/10 05:28:04;;;;;;;0.95;0.50;;;;;;;15.08;75.78;97946.00;6243177;23;20319;-83
2022/09/10 05:30:31;;;;;;;0.40;0.40;;;;;;;15.14;76.55;97945.09;6216685;23;20020;-83
2022/09/10 05:33:02;;;;;;;0.70;0.60;;;;;;;15.10;76.24;97948.41;6243353;23;20012;-83
2022/09/10 05:35:29;;;;;;;0.50;0.50;;;;;;;15.02;77.04;97952.22;6217280;23;20020;-83
2022/09/10 05:37:57;;;;;;;1.00;0.70;;;;;;;14.94;76.98;97949.94;6238196;23;20020;-83
2022/09/10 05:40:24;;;;;;;1.33;0.63;;;;;;;14.86;77.90;97952.91;6241996;23;20020;-81
2022/09/10 05:42:51;;;;;;;1.10;0.60;;;;;;;14.87;79.18;97949.22;6241266;23;20012;-81
2022/09/10 05:45:19;;;;;;;0.50;0.50;;;;;;;14.94;79.52;97957.88;6241180;23;20026;-81
2022/09/10 05:47:46;;;;;;;0.40;0.40;;;;;;;15.01;79.97;97955.09;6241243;23;20039;-81
2022/09/10 05:50:13;;;;;;;0.57;0.50;;;;;;;15.01;79.37;97950.63;6242340;23;20309;-81
2022/09/10 05:52:40;;;;;;;0.40;0.40;;;;;;;15.02;79.90;97957.50;6241738;23;20047;-82
2022/09/10 05:55:07;;;;;;;0.60;0.60;;;;;;;15.08;80.21;97946.00;6242578;23;20034;-83
2022/09/10 05:57:34;;;;;;;0.55;0.55;;;;;;;15.04;79.85;97954.63;6215944;23;20099;-82
2022/09/10 06:00:05;;;;;;;0.60;0.60;;;;;;;14.94;80.02;97955.22;6190456;23;20024;-82
2022/09/10 06:02:32;;;;;;;0.40;0.40;;;;;;;15.04;81.05;97955.44;6241972;23;20444;-81
2022/09/10 06:04:59;;;;;;;0.47;0.45;;;;;;;15.14;80.43;97955.66;6242442;23;20369;-82
2022/09/10 06:07:28;;;;;;;0.32;0.30;;;;;;;15.27;80.51;97955.41;6242010;23;20095;-82
2022/09/10 06:09:56;;;;;;;0.40;0.40;;;;;;;15.33;79.75;97963.44;6216061;23;20031;-82
2022/09/10 06:12:23;;;;;;;0.75;0.45;;;;;;;15.40;79.98;97953.53;6216997;23;20341;-82
2022/09/10 06:14:49;;;;;;;0.50;0.50;;;;;;;15.34;78.07;97965.03;6242843;23;20058;-82
2022/09/10 06:17:16;;;;;;;0.98;0.60;;;;;;;15.35;79.16;97959.50;6235877;23;20624;-83
2022/09/10 06:19:46;;;;;;;0.52;0.52;;;;;;;15.38;79.35;97958.25;6241747;23;20020;-82
2022/09/10 06:22:15;;;;;;;0.60;0.50;;;;;;;15.43;79.85;97958.34;6190244;23;20020;-82
2022/09/10 06:24:42;;;;;;;1.30;0.50;;;;;;;15.46;78.83;97960.53;6213798;22;20091;-82
2022/09/10 06:27:09;;;;;;;0.40;0.40;;;;;;;15.47;78.87;97962.13;6243367;23;20020;-81
2022/09/10 06:29:35;;;;;;;0.30;0.30;;;;;;;15.55;79.30;97960.97;6215119;23;20020;-82
2022/09/10 06:32:03;;;;;;;0.80;0.50;;;;;;;15.49;78.83;97968.00;6241276;23;20016;-82
2022/09/10 06:34:30;;;;;;;0.52;0.52;;;;;;;15.49;78.82;97962.72;6241696;23;20047;-82
2022/09/10 06:36:57;;;;;;;0.82;0.40;;;;;;;15.62;79.13;97969.56;6215816;23;20012;-82
2022/09/10 06:39:23;;;;;;;0.73;0.55;;;;;;;15.58;79.36;97958.66;6210710;23;20624;-82
2022/09/10 06:41:52;;;;;;;1.15;0.60;;;;;;;15.59;79.46;97968.19;6243141;23;20071;-84
2022/09/10 06:44:21;;;;;;;0.60;0.60;;;;;;;15.66;79.41;97968.09;6215846;23;20084;-84
2022/09/10 06:46:48;;;;;;;0.65;0.65;;;;;;;15.70;79.75;97975.31;6242353;23;20450;-84
2022/09/10 06:49:35;;;;;;;1.10;0.55;;;;;;;15.72;80.28;97972.44;6242472;23;20020;-84
2022/09/10 06:52:02;;;;;;;2.70;0.60;;;;;;;15.45;78.52;97970.28;6216151;23;20027;-84
2022/09/10 06:54:30;;;;;;;0.65;0.50;;;;;;;15.49;79.76;97968.00;6242712;23;20016;-84
2022/09/10 06:56:57;;;;;;;1.30;0.60;;;;;;;15.53;79.40;97969.13;6243671;23;20020;-84
2022/09/10 06:59:24;;;;;;;0.77;0.60;;;;;;;15.45;79.10;97972.13;6244903;23;20469;-84
2022/09/10 07:01:51;;;;;;;0.68;0.60;;;;;;;15.49;79.80;97973.28;6245161;23;20083;-85
2022/09/10 07:04:18;;;;;;;0.50;0.50;;;;;;;15.50;79.80;97974.88;6218295;23;20008;-84
2022/09/10 07:06:46;;;;;;;0.70;0.50;;;;;;;15.69;80.38;97980.84;6245419;23;20508;-84
2022/09/10 07:09:13;;;;;;;0.60;0.60;;;;;;;15.64;78.62;97973.59;6245948;23;20518;-84
2022/09/10 07:11:40;;;;;;;0.50;0.50;;;;;;;15.76;80.00;97971.72;6244978;23;20111;-84
2022/09/10 07:14:12;;;;;;;0.50;0.50;;;;;;;15.94;80.09;97973.38;6219037;23;20031;-83
2022/09/10 07:16:43;;;;;;;0.88;0.50;;;;;;;16.04;78.43;97975.41;6244751;23;20022;-82
2022/09/10 07:19:16;;;;;;;1.73;0.70;;;;;;;15.99;78.01;97970.03;6218081;23;20586;-83
2022/09/10 07:21:43;;;;;;;0.57;0.50;;;;;;;16.21;79.22;97975.44;6245373;23;20023;-82
2022/09/10 07:24:11;;;;;;;1.17;0.75;;;;;;;15.93;77.33;97978.91;6244773;23;20111;-83
2022/09/10 07:26:38;;;;;;;0.70;0.60;;;;;;;16.01;78.53;97975.88;6218259;23;20462;-83
2022/09/10 07:29:05;;;;;;;2.40;0.80;;;;;;;16.07;76.66;97980.22;6217762;23;20020;-81
2022/09/10 07:31:36;;;;;;;1.08;0.40;;;;;;;16.27;78.33;97979.78;6216847;23;20020;-83
2022/09/10 07:34:03;;;;;;;1.58;0.50;;;;;;;16.42;76.33;97989.81;6242020;23;20326;-82
2022/09/10 07:36:31;;;;;;;0.70;0.50;;;;;;;16.40;76.69;97978.66;6241276;23;20418;-81
2022/09/10 07:39:02;;;;;;;0.52;0.50;;;;;;;16.40;77.57;97986.59;6210167;23;20027;-82
2022/09/10 07:41:33;;;;;;;0.45;0.45;;;;;;;16.42;77.83;97993.25;6242071;23;20031;-82
2022/09/10 07:44:00;;;;;;;0.60;0.40;;;;;;;16.46;76.07;97993.59;6242377;23;20456;-83
2022/09/10 07:46:27;;;;;;;0.60;0.50;;;;;;;16.26;76.62;97996.72;6241783;23;20540;-84
2022/09/10 07:48:57;;;;;;;1.13;0.60;;;;;;;16.25;77.63;97987.97;6188504;23;20020;-83
2022/09/10 07:51:28;;;;;;;2.97;0.80;;;;;;;16.17;76.96;97996.28;6241428;23;20023;-82
2022/09/10 07:53:57;;;;;;;0.57;0.57;;;;;;;16.16;78.12;97999.97;6213694;23;20012;-81
2022/09/10 07:56:25;;;;;;;0.73;0.50;;;;;;;16.22;78.95;98000.88;6242463;23;20020;-82
2022/09/10 07:58:55;;;;;;;0.85;0.70;;;;;;;16.16;77.18;98002.59;6241975;23;20022;-82
2022/09/10 08:01:22;;;;;;;1.80;0.70;;;;;;;16.18;77.94;98003.16;6241277;23;20020;-84
2022/09/10 08:03:49;;;;;;;1.08;0.70;;;;;;;16.08;77.81;98012.78;6240128;23;20650;-83
2022/09/10 08:06:16;;;;;;;0.43;0.43;;;;;;;15.99;78.49;98013.16;6241975;23;20311;-83
2022/09/10 08:08:42;;;;;;;0.60;0.60;;;;;;;15.98;78.81;98014.19;6242846;23;20016;-82
2022/09/10 08:11:15;;;;;;;1.98;0.90;;;;;;;16.03;78.13;98016.94;6244035;23;20031;-82
2022/09/10 08:13:46;;;;;;;0.75;0.75;;;;;;;16.18;79.02;98019.03;6217485;23;20032;-82
2022/09/10 08:16:15;;;;;;;;;;;;;;;16.24;77.44;98018.09;6243840;23;20016;-82
2022/09/10 08:18:42;;;;;;;1.55;0.80;;;;;;;16.26;78.24;98021.31;6243477;23;19915;-82
2022/09/10 08:21:10;;;;;;;0.73;0.73;;;;;;;16.18;77.85;98013.75;6238061;23;20016;-82
2022/09/10 08:23:40;;;;;;;1.45;0.70;;;;;;;16.21;77.65;98025.72;6239919;23;20018;-84
2022/09/10 08:26:07;;;;;;;0.80;0.80;;;;;;;16.18;77.36;98019.03;6238780;22;20051;-81
2022/09/10 08:28:35;;;;;;;0.82;0.80;;;;;;;16.08;78.97;98031.31;6242587;23;20020;-82
2022/09/10 08:31:07;;;;;;;0.70;0.70;;;;;;;16.12;78.84;98030.56;6242846;23;20378;-82
2022/09/10 08:33:40;;;;;;;0.80;0.80;;;;;;;16.15;79.75;98024.81;6244286;23;20020;-83
2022/09/10 08:36:10;;;;;;;0.73;0.70;;;;;;;16.19;79.31;98035.72;6244942;23;20548;-84
2022/09/10 08:38:40;;;;;;;0.50;0.50;;;;;;;16.31;78.80;98029.34;6240713;23;20020;-82
2022/09/10 08:41:51;;;;;;;1.35;0.82;;;;;;;16.23;78.66;98027.06;6244555;23;20457;-82
2022/09/10 08:44:28;;;;;;;0.80;0.80;;;;;;;16.20;77.56;98038.16;6216678;23;20047;-83
2022/09/10 08:46:59;;;;;;;1.05;0.80;;;;;;;16.09;77.28;98030.25;6243051;23;20020;-83
2022/09/10 08:49:51;;;;;;;1.20;0.90;;;;;;;16.05;78.25;98043.16;6217171;23;20067;-81
2022/09/10 08:52:40;;;;;;;1.42;0.70;;;;;;;16.00;80.91;98043.03;6216942;23;20020;-83
2022/09/10 08:55:16;;;;;;;1.42;0.80;;;;;;;16.01;80.75;98042.00;6244816;23;20476;-82
2022/09/10 08:58:19;;;;;;;0.93;0.80;;;;;;;15.86;80.42;98050.44;6217879;23;20498;-83
2022/09/10 09:00:54;;;;;;;1.25;0.75;;;;;;;15.78;81.19;98049.00;6206611;23;20027;-84
2022/09/10 09:03:34;;;;;;;0.88;0.80;;;;;;;15.75;80.47;98041.50;6243881;23;20016;-84
2022/09/10 09:06:06;;;;;;;1.40;0.63;;;;;;;15.82;81.74;98041.38;6244514;23;20023;-85
2022/09/10 09:08:47;;;;;;;1.92;0.73;;;;;;;15.78;80.72;98046.34;6244794;23;20016;-83
2022/09/10 09:12:06;;;;;;;0.98;0.68;;;;;;;16.06;80.74;98050.03;6244046;23;20043;-82
2022/09/10 09:15:11;;;;;;;1.60;0.80;;;;;;;16.15;81.33;98050.47;6193091;23;20024;-82
2022/09/10 09:18:28;;;;;;;0.60;0.60;;;;;;;16.37;79.07;98047.94;6244365;23;20024;-82
2022/09/10 09:21:15;;;;;;;1.25;0.80;;;;;;;16.58;78.30;98041.97;6243386;23;20020;-82
2022/09/10 09:23:55;;;;;;;1.15;0.90;;;;;;;16.92;78.34;98040.19;6192992;23;20016;-82
2022/09/10 09:26:46;;;;;;;0.90;0.90;;;;;;;17.17;78.46;98041.59;6219263;23;20020;-81
2022/09/10 09:29:42;;;;;;;1.52;1.15;;;;;;;17.37;74.71;98037.38;6242498;23;20473;-83
2022/09/10 09:32:15;;;;;;;0.65;0.65;;;;;;;17.62;74.25;98036.91;6216516;23;20334;-82
2022/09/10 09:34:53;;;;;;;1.05;0.70;;;;;;;17.71;74.68;98036.50;6243596;23;20016;-83
2022/09/10 09:37:30;;;;;;;1.75;0.82;;;;;;;17.71;75.55;98032.00;6243464;23;20020;-83
2022/09/10 09:40:29;;;;;;;1.55;0.90;;;;;;;17.42;73.49;98038.50;6239372;23;20016;-84
2022/09/10 09:43:08;;;;;;;1.17;0.90;;;;;;;17.18;72.81;98025.47;6242962;23;20016;-83
2022/09/10 09:45:42;;;;;;;1.52;0.90;;;;;;;16.89;74.45;98027.41;6243040;23;20026;-81
2022/09/10 09:48:14;;;;;;;0.85;0.85;;;;;;;16.75;75.40;98012.91;6215372;23;20465;-82
2022/09/10 09:50:46;;;;;;;1.05;0.82;;;;;;;16.58;76.01;98026.09;6241848;23;20057;-83
2022/09/10 09:53:26;;;;;;;0.85;0.80;;;;;;;16.54;76.47;98023.09;6242578;23;20069;-83
2022/09/10 09:56:21;;;;;;;1.15;1.00;;;;;;;16.48;75.05;98012.69;6243060;23;20012;-84
2022/09/10 09:58:49;;;;;;;1.15;0.90;;;;;;;16.54;76.12;98022.31;6241174;23;20024;-82
2022/09/10 10:01:26;;;;;;;1.02;0.80;;;;;;;16.46;76.00;98014.78;6241122;23;20024;-82
2022/09/10 10:04:01;;;;;;;1.83;1.02;;;;;;;16.50;76.24;98031.78;6241577;23;20020;-83
2022/09/10 10:06:33;;;;;;;1.50;1.00;;;;;;;16.54;76.53;98027.59;6239787;23;20430;-84
2022/09/10 10:09:27;;;;;;;1.60;1.05;;;;;;;16.51;75.73;98036.84;6242479;23;20075;-83
2022/09/10 10:11:56;;;;;;;1.70;0.90;;;;;;;16.56;75.57;98025.53;6242830;23;20027;-86
2022/09/10 10:14:31;;;;;;;3.22;1.20;;;;;;;16.68;76.66;98023.63;6243892;23;20091;-84
2022/09/10 10:16:59;;;;;;;3.47;1.05;;;;;;;16.71;75.11;98027.66;6216746;23;20023;-84
2022/09/10 10:19:34;;;;;;;1.25;1.00;;;;;;;16.60;74.89;98029.28;6238062;23;20034;-85
2022/09/10 10:22:24;;;;;;;0.90;0.90;;;;;;;16.46;78.13;98030.66;6241976;23;20039;-84
2022/09/10 10:24:53;;;;;;;1.75;0.93;;;;;;;16.25;79.39;98024.19;6222814;22;20024;-84
2022/09/10 10:27:36;;;;;;;2.22;0.90;;;;;;;16.13;82.31;98036.66;6221244;22;20023;-83
2022/09/10 10:30:15;;;;;;;1.65;1.10;;;;;;;15.82;80.85;98040.56;6247384;22;20094;-84
2022/09/10 10:33:08;;;;;;;2.13;1.08;;;;;;;15.53;80.76;98038.66;6273232;22;20043;-83
2022/09/10 10:36:08;;;;;;;2.97;1.20;;;;;;;15.42;82.39;98038.69;6246441;22;20019;-84
2022/09/10 10:38:41;;;;;;;1.23;1.08;;;;;;;15.31;84.10;98036.84;6274210;22;20015;-85
2022/09/10 10:41:29;;;;;;;2.35;1.30;;;;;;;15.17;82.40;98039.75;6267425;22;20039;-83
2022/09/10 10:44:31;;;;;;;2.53;1.25;;;;;;;15.06;82.97;98040.53;6220379;22;20023;-84
2022/09/10 10:47:14;;;;;;;2.15;1.35;;;;;;;15.11;84.31;98030.06;6246584;22;20074;-84
2022/09/10 10:50:08;;;;;;;1.48;1.20;;;;;;;15.09;85.74;98031.34;6245055;22;20027;-84
2022/09/10 10:53:05;;;;;;;1.65;1.30;;;;;;;15.07;85.20;98039.50;6273850;22;20015;-84
2022/09/10 10:55:51;;;;;;;2.55;1.38;;;;;;;15.09;85.80;98029.50;6246119;22;20012;-83
2022/09/10 10:58:28;;;;;;;2.10;1.33;;;;;;;15.20;85.33;98030.53;6273284;22;20030;-83
2022/09/10 11:01:06;;;;;;;2.15;1.40;;;;;;;15.24;85.46;98013.19;6272539;22;20026;-83
2022/09/10 11:03:51;;;;;;;1.83;1.10;;;;;;;15.48;85.27;98013.97;6266360;22;20026;-84
2022/09/10 11:06:30;;;;;;;0.90;0.90;;;;;;;15.77;84.12;98005.06;6242709;22;20031;-84
2022/09/10 11:09:06;;;;;;;1.92;0.90;;;;;;;16.08;85.40;98008.28;6271091;22;20027;-85
2022/09/10 11:12:26;;;;;;;0.93;0.80;;;;;;;16.47;84.04;98011.06;6272094;22;20107;-84
2022/09/10 11:15:15;;;;;;;0.98;0.70;;;;;;;16.89;82.98;98010.72;6272023;22;20417;-84
2022/09/10 11:17:54;;;;;;;1.13;0.75;;;;;;;17.23;81.18;98003.53;6244466;22;20095;-83
2022/09/10 11:20:33;;;;;;;1.25;0.98;;;;;;;17.28;80.51;98004.41;6222860;22;20457;-83
2022/09/10 11:23:24;;;;;;;1.30;0.90;;;;;;;17.34;78.98;98006.06;6242790;22;20102;-82
2022/09/10 11:26:03;;;;;;;2.13;1.20;;;;;;;17.42;77.63;98001.38;6251497;22;20039;-84
2022/09/10 11:28:42;;;;;;;3.25;1.20;;;;;;;17.40;79.74;97999.00;6213791;23;20034;-83
2022/09/10 11:31:34;;;;;;;3.78;1.40;;;;;;;17.16;76.91;97993.09;6243067;23;20422;-85
2022/09/10 11:34:43;;;;;;;2.60;1.35;;;;;;;17.04;78.65;97989.75;6240653;23;20020;-82
2022/09/10 11:37:19;;;;;;;1.25;1.10;;;;;;;17.09;79.39;97995.09;6232324;23;20020;-85
2022/09/10 11:39:52;;;;;;;2.53;1.27;;;;;;;17.11;78.03;97993.03;6242065;23;20027;-83
2022/09/10 11:42:29;;;;;;;2.33;1.40;;;;;;;17.21;77.29;97995.00;6237313;23;20039;-83
2022/09/10 11:45:23;;;;;;;1.42;1.30;;;;;;;17.26;74.61;97989.78;6215691;23;20087;-84
2022/09/10 11:48:29;;;;;;;3.42;1.55;;;;;;;17.32;75.20;97984.28;6243455;23;20031;-85
2022/09/10 11:51:16;;;;;;;2.53;1.50;;;;;;;17.64;75.39;97988.94;6243750;23;20016;-84
2022/09/10 11:53:44;;;;;;;2.00;1.30;;;;;;;17.86;73.44;97984.44;6245615;23;20023;-84
2022/09/10 11:56:54;;;;;;;3.38;1.50;;;;;;;18.23;70.69;97975.78;6244832;23;20016;-86
2022/09/10 12:00:16;;;;;;;2.25;1.45;;;;;;;18.58;73.72;97967.31;6217720;23;20025;-85
2022/09/10 12:03:21;;;;;;;2.83;1.50;;;;;;;19.06;70.97;97970.06;6216735;23;20022;-84
2022/09/10 12:06:12;;;;;;;1.67;1.40;;;;;;;19.08;68.34;97965.31;6216996;23;20066;-83
2022/09/10 12:09:20;;;;;;;1.52;1.38;;;;;;;19.35;67.74;97967.81;6244951;23;20020;-84